• Join FlightAware (Why Join?)
  • Login
  • US Flag 
06:36AM EDT


 

Airport Tracker/Info


-or-


 

Live Flight TrackerFlight Track Log ✈ N8044U ✈ 20-Sep-2013 ✈ KABE - KPEO

Flight Track Log - Related Links

Times and Time Zones

All times are in EDT time to prevent confusion due to time zone crossing. See the N8044U flight status page for this flight to view local times or setup timezone preferences in your user account.

Time Position Orientation Groundspeed Altitude Reporting Facility
EDT Latitude Longitude Course Direction KTS MPH feet Rate Location/Type
08:02AM 41.6861 -76.3483 324° Northwest 155 178 8,500  Level New York Center
08:03AM 41.7306 -76.3797 332° Northwest 155 178 8,400 -60 Descending New York Center
08:04AM 41.7706 -76.4111 330° Northwest 160 184 8,400 -180 Level New York Center
08:05AM 41.8131 -76.4397 333° Northwest 160 184 8,100 -360 Descending New York Center
08:06AM 41.8553 -76.4711 331° Northwest 165 190 7,700 -360 Descending New York Center
08:07AM 41.8975 -76.5025 331° Northwest 165 190 7,400 -360 Descending New York Center
08:08AM 41.8586 -76.4063 324° Northwest  Level Estimated
08:08AM 41.9397 -76.5342 331° Northwest 170 196 7,000  Level New York Center
08:09AM 41.9819 -76.5631 333° Northwest 170 196 6,600 -420 Descending New York Center
08:10AM 42.0264 -76.5947 332° Northwest 175 201 6,200 -420 Descending New York Center
08:11AM 42.0683 -76.6264 331° Northwest 175 201 5,800 -300 Descending New York Center
08:12AM 42.1086 -76.6578 330° Northwest 175 201 5,600 -300 Descending New York Center
08:13AM 42.1528 -76.6897 332° Northwest 175 201 5,300 -300 Descending New York Center
08:14AM 42.1950 -76.7217 331° Northwest 175 201 5,000 -300 Descending New York Center
08:15AM 42.2369 -76.7533 331° Northwest 180 207 4,700 -300 Descending New York Center
08:16AM 42.2792 -76.7853 331° Northwest 180 207 4,500 -300 Descending New York Center
08:17AM 42.3214 -76.8144 333° Northwest 180 207 4,200 -300 Descending New York Center
08:19AM 42.3694 -76.8296 334° Northwest  Level FlightAware Approximate
08:26AM 42.6058 -77.0235 326° Northwest  Level FlightAware Approximate
08:27AM 42.6333 -77.0500 324° Northwest  Level FlightAware Approximate